Time;durP1;ratioP1;P1;durP2;ratioP2;P2;SDS_P1;SDS_P2;PMS_P1;PMS_P2;Temp;Humidity;BMP_temperature;BMP_pressure;BME280_temperature;BME280_humidity;BME280_pressure;Samples;Min_cycle;Max_cycle;Signal;HPM_P1;HPM_P2
2023/08/24 00:01:45;;;;;;;4.67;3.23;;;19.60;99.90;;;19.52;69.01;101153.97;5038529;28;20214;-76
2023/08/24 00:04:17;;;;;;;6.07;2.87;;;19.60;99.90;;;19.47;68.86;101156.47;5037400;28;20226;-75
2023/08/24 00:06:51;;;;;;;3.33;2.97;;;19.70;99.90;;;19.44;69.54;101145.19;5037733;28;20215;-76
2023/08/24 00:09:24;;;;;;;7.10;3.07;;;19.50;99.90;;;19.51;69.52;101151.47;5039572;28;20199;-76
2023/08/24 00:11:56;;;;;;;5.00;3.10;;;19.60;99.90;;;19.56;68.81;101149.78;5035977;28;20233;-76
2023/08/24 00:14:28;;;;;;;6.57;3.10;;;19.70;99.90;;;19.51;69.42;101157.75;5035768;28;20313;-77
2023/08/24 00:17:00;;;;;;;4.53;2.93;;;19.60;99.90;;;19.46;69.28;101149.38;5035878;28;20223;-77
2023/08/24 00:19:32;;;;;;;5.40;3.27;;;19.70;99.90;;;19.40;69.70;101150.19;5035538;28;20288;-76
2023/08/24 00:22:05;;;;;;;5.47;3.10;;;19.60;99.90;;;19.37;70.07;101150.59;5035393;28;20242;-76
2023/08/24 00:24:37;;;;;;;4.57;3.03;;;19.20;99.90;;;19.43;69.69;101157.94;5035807;28;20330;-76
2023/08/24 00:27:10;;;;;;;5.00;3.00;;;19.60;99.90;;;19.42;69.51;101150.81;5035568;28;20215;-77
2023/08/24 00:29:42;;;;;;;6.73;3.10;;;19.60;99.90;;;19.34;69.98;101152.88;5035345;28;20286;-77
2023/08/24 00:32:13;;;;;;;4.67;3.03;;;19.50;99.90;;;19.31;69.71;101151.44;5035596;28;20257;-77
2023/08/24 00:34:46;;;;;;;4.60;2.90;;;19.50;99.90;;;19.26;69.84;101151.19;5035110;28;20783;-77
2023/08/24 00:37:19;;;;;;;5.27;3.10;;;19.50;99.90;;;19.19;70.14;101153.91;5035129;28;20553;-77
2023/08/24 00:39:52;;;;;;;5.50;3.20;;;19.40;99.90;;;19.17;69.85;101147.88;5035117;28;20743;-77
2023/08/24 00:42:24;;;;;;;5.67;3.10;;;19.30;99.90;;;19.18;69.76;101146.81;5035347;28;20277;-77
2023/08/24 00:44:56;;;;;;;4.50;3.00;;;19.40;99.90;;;19.22;69.89;101144.50;5035224;28;20227;-77
2023/08/24 00:47:29;;;;;;;5.23;2.73;;;19.40;99.90;;;19.13;69.83;101143.03;5033989;28;20696;-77
2023/08/24 00:50:03;;;;;;;6.87;2.93;;;19.20;99.90;;;19.21;70.04;101149.09;5035231;28;20191;-77
2023/08/24 00:52:39;;;;;;;6.80;3.23;;;19.40;99.90;;;19.02;70.42;101144.47;5034867;28;20660;-77
2023/08/24 00:55:13;;;;;;;5.20;3.47;;;19.10;99.90;;;19.07;70.52;101138.44;5035090;28;20282;-77
2023/08/24 00:57:46;;;;;;;3.83;3.20;;;19.30;99.90;;;18.99;70.76;101138.63;5035079;28;20279;-77
2023/08/24 01:00:20;;;;;;;5.33;2.83;;;19.10;99.90;;;18.96;70.51;101137.16;5034999;28;20214;-77
2023/08/24 01:02:52;;;;;;;5.90;2.90;;;19.20;99.90;;;18.97;70.71;101122.53;5034891;28;20229;-77
2023/08/24 01:05:24;;;;;;;4.77;3.40;;;19.30;99.90;;;18.93;70.38;101125.88;5034663;28;20209;-77
2023/08/24 01:07:57;;;;;;;3.40;3.10;;;19.10;99.90;;;18.95;70.51;101129.22;5034809;28;20298;-77
2023/08/24 01:10:36;;;;;;;7.87;3.70;;;19.10;99.90;;;18.83;71.20;101130.88;5035657;28;20214;-77
2023/08/24 01:13:18;;;;;;;6.20;3.50;;;19.00;99.90;;;18.73;71.55;101125.84;5034731;28;20222;-76
2023/08/24 01:15:58;;;;;;;6.30;3.90;;;18.90;99.90;;;18.71;71.76;101127.91;5034428;28;20201;-77
2023/08/24 01:18:35;;;;;;;5.83;3.37;;;18.90;99.90;;;18.72;71.39;101130.44;5034684;28;20226;-77
2023/08/24 01:21:08;;;;;;;6.13;3.70;;;18.90;99.90;;;18.65;72.01;101126.84;5034582;28;20226;-77
2023/08/24 01:23:54;;;;;;;3.17;2.87;;;18.90;99.90;;;18.67;71.58;101132.91;5034515;28;20227;-77
2023/08/24 01:26:29;;;;;;;6.77;3.53;;;18.90;99.90;;;18.54;72.14;101138.28;5034481;28;20214;-77
2023/08/24 01:29:02;;;;;;;6.83;3.77;;;18.70;99.90;;;18.53;72.38;101141.19;5034371;28;20246;-77
2023/08/24 01:31:35;;;;;;;4.97;3.10;;;18.70;99.90;;;18.58;71.81;101144.97;5034442;28;20281;-77
2023/08/24 01:34:06;;;;;;;4.93;3.57;;;18.80;99.90;;;18.46;72.21;101135.69;5033967;28;20696;-77
2023/08/24 01:36:38;;;;;;;5.37;3.50;;;18.70;99.90;;;18.56;72.08;101136.19;5034277;28;20231;-77
2023/08/24 01:39:22;;;;;;;5.87;3.60;;;18.80;99.90;;;18.42;72.46;101134.47;5034276;28;20279;-77
2023/08/24 01:42:01;;;;;;;7.23;3.80;;;18.60;99.90;;;18.47;71.63;101134.69;5034237;28;20273;-77
2023/08/24 01:44:38;;;;;;;4.73;3.10;;;18.70;99.90;;;18.34;72.14;101126.50;5034287;28;20639;-77
2023/08/24 01:47:13;;;;;;;5.20;3.50;;;18.60;99.90;;;18.37;72.38;101123.38;5033633;28;20224;-77
2023/08/24 01:49:46;;;;;;;6.03;3.37;;;18.60;99.90;;;18.34;72.04;101121.06;5033795;28;20665;-77
2023/08/24 01:52:19;;;;;;;6.67;3.80;;;18.60;99.90;;;18.24;72.87;101121.44;5034026;28;20195;-77
2023/08/24 01:54:52;;;;;;;6.33;3.40;;;18.50;99.90;;;18.19;73.06;101114.94;5033911;28;20223;-76
2023/08/24 01:57:26;;;;;;;5.33;3.40;;;18.40;99.90;;;18.23;72.36;101119.75;5033666;28;20286;-76
2023/08/24 01:59:58;;;;;;;5.73;3.93;;;18.40;99.90;;;18.15;72.89;101116.41;5033713;28;20195;-76
2023/08/24 02:02:29;;;;;;;5.47;3.20;;;18.40;99.90;;;18.12;72.94;101114.06;5033881;28;20281;-76
2023/08/24 02:05:02;;;;;;;6.37;3.80;;;18.40;99.90;;;18.14;72.59;101120.13;5033791;28;20285;-76
2023/08/24 02:07:34;;;;;;;6.03;4.17;;;18.40;99.90;;;18.14;73.35;101117.44;5033774;28;20290;-76
2023/08/24 02:10:07;;;;;;;6.73;3.90;;;18.40;99.90;;;18.00;73.50;101118.38;5033458;28;20653;-76
2023/08/24 02:12:40;;;;;;;5.77;3.60;;;18.20;99.90;;;18.03;72.81;101123.41;5033764;28;20223;-76
2023/08/24 02:15:12;;;;;;;6.53;3.70;;;18.30;99.90;;;17.98;72.93;101117.75;5033764;28;20281;-76
2023/08/24 02:17:44;;;;;;;6.73;3.40;;;18.20;99.90;;;18.00;73.25;101112.97;5033682;28;20187;-76
2023/08/24 02:20:16;;;;;;;4.83;3.27;;;18.20;99.90;;;17.98;73.24;101110.44;5033613;28;20213;-76
2023/08/24 02:22:48;;;;;;;4.93;3.47;;;18.30;99.90;;;17.95;72.89;101110.84;5033565;28;20285;-76
2023/08/24 02:25:20;;;;;;;3.70;3.37;;;18.20;99.90;;;17.92;73.38;101108.53;5033545;28;20641;-76
2023/08/24 02:27:53;;;;;;;6.23;3.40;;;18.20;99.90;;;17.95;72.84;101110.00;5033199;28;20227;-76
2023/08/24 02:30:25;;;;;;;6.07;3.40;;;18.30;99.90;;;17.89;73.31;101103.53;5033540;28;20195;-76
2023/08/24 02:32:59;;;;;;;7.20;3.63;;;18.10;99.90;;;17.91;73.60;101108.75;5033333;28;20226;-76
2023/08/24 02:35:32;;;;;;;5.37;3.37;;;18.20;99.90;;;17.91;73.01;101100.63;5033453;28;20199;-76
2023/08/24 02:38:04;;;;;;;5.87;3.30;;;18.20;99.90;;;17.94;73.02;101100.22;5034232;28;20211;-76
2023/08/24 02:40:36;;;;;;;6.00;3.50;;;18.20;99.90;;;17.94;73.50;101108.34;5031865;28;20274;-76
2023/08/24 02:43:09;;;;;;;4.97;3.50;;;18.20;99.90;;;17.82;74.25;101099.94;5033318;28;20317;-76
2023/08/24 02:45:41;;;;;;;4.07;3.47;;;18.10;99.90;;;17.77;74.00;101109.69;5032485;28;20197;-75
2023/08/24 02:48:15;;;;;;;6.07;4.23;;;18.00;99.90;;;17.77;74.26;101104.28;5033573;28;20242;-75
2023/08/24 02:50:50;;;;;;;7.73;3.97;;;18.10;99.90;;;17.78;74.89;101098.66;5032870;28;20230;-76
2023/08/24 02:53:22;;;;;;;4.67;3.70;;;18.10;99.90;;;17.75;75.08;101099.03;5033228;28;20313;-74
2023/08/24 02:55:54;;;;;;;7.10;3.97;;;18.00;99.90;;;17.80;74.94;101095.75;5033079;28;20227;-75
2023/08/24 02:58:28;;;;;;;8.37;3.53;;;18.10;99.90;;;17.77;74.30;101098.88;5033259;28;20193;-75
2023/08/24 03:01:00;;;;;;;4.27;3.77;;;18.10;99.90;;;17.71;74.13;101092.34;5032912;28;20191;-75
2023/08/24 03:03:32;;;;;;;5.77;4.00;;;18.00;99.90;;;17.58;74.82;101093.09;5032889;28;20234;-75
2023/08/24 03:06:07;;;;;;;7.20;3.93;;;17.90;99.90;;;17.57;75.06;101088.72;5033177;28;20204;-75
2023/08/24 03:08:40;;;;;;;5.27;3.67;;;17.80;99.90;;;17.47;74.96;101082.78;5033085;28;20210;-75
2023/08/24 03:11:12;;;;;;;7.43;3.83;;;17.70;99.90;;;17.57;75.10;101083.28;5034446;28;20227;-75
2023/08/24 03:13:45;;;;;;;8.10;3.90;;;17.90;99.90;;;17.53;74.80;101079.31;5036613;28;20709;-75
2023/08/24 03:16:17;;;;;;;5.37;4.10;;;17.80;99.90;;;17.53;74.60;101071.19;5036955;28;20211;-74
2023/08/24 03:18:49;;;;;;;6.00;3.87;;;17.80;99.90;;;17.39;74.90;101074.81;5036935;28;20277;-74
2023/08/24 03:21:21;;;;;;;4.50;3.80;;;17.70;99.90;;;17.43;75.33;101067.97;5036858;28;20249;-75
2023/08/24 03:23:53;;;;;;;4.63;3.27;;;17.70;99.90;;;17.47;75.72;101077.38;5036778;28;20309;-75
2023/08/24 03:26:25;;;;;;;6.73;3.90;;;17.80;99.90;;;17.56;74.40;101076.22;5036780;28;20209;-75
2023/08/24 03:28:58;;;;;;;6.60;3.73;;;17.90;99.90;;;17.51;74.13;101075.94;5036690;28;20250;-75
2023/08/24 03:31:30;;;;;;;6.23;4.00;;;17.90;99.90;;;17.38;74.88;101080.41;5036656;28;20194;-75
2023/08/24 03:34:03;;;;;;;7.57;3.90;;;17.70;99.90;;;17.38;73.87;101085.84;5036599;28;20265;-75
2023/08/24 03:36:35;;;;;;;4.03;3.53;;;17.70;99.90;;;17.38;73.96;101081.25;5036291;28;20249;-75
2023/08/24 03:39:07;;;;;;;7.17;4.00;;;17.60;99.90;;;17.39;73.79;101087.50;5036559;28;20286;-75
2023/08/24 03:41:39;;;;;;;6.27;3.70;;;17.70;99.90;;;17.38;73.80;101086.69;5036559;28;20203;-75
2023/08/24 03:44:12;;;;;;;6.10;4.10;;;17.70;99.90;;;17.23;74.52;101086.75;5036411;28;20254;-75
2023/08/24 03:46:44;;;;;;;7.00;3.43;;;17.50;99.90;;;17.19;74.67;101084.66;5036155;28;20589;-75
2023/08/24 03:49:16;;;;;;;7.17;4.27;;;17.50;99.90;;;17.12;75.48;101084.56;5036314;28;20264;-75
2023/08/24 03:51:48;;;;;;;7.80;4.20;;;17.40;99.90;;;17.13;75.46;101083.53;5036275;28;20201;-75
2023/08/24 03:54:20;;;;;;;5.93;3.70;;;17.40;99.90;;;17.20;74.88;101089.84;5035929;28;20313;-75
2023/08/24 03:56:51;;;;;;;8.40;3.30;;;17.50;99.90;;;17.17;75.13;101090.25;5035938;28;20657;-75
2023/08/24 03:59:25;;;;;;;6.43;4.00;;;17.40;99.90;;;17.13;75.11;101080.00;5035890;28;20274;-75
2023/08/24 04:01:59;;;;;;;4.20;3.57;;;17.50;99.90;;;17.01;75.54;101081.56;5035841;28;20199;-75
2023/08/24 04:04:31;;;;;;;5.93;3.50;;;17.30;99.90;;;17.01;75.99;101074.28;5036010;28;20258;-75
2023/08/24 04:07:03;;;;;;;5.87;3.53;;;17.20;99.90;;;17.04;75.49;101079.31;5035771;28;20187;-75
2023/08/24 04:09:35;;;;;;;4.57;3.80;;;17.40;99.90;;;17.05;76.04;101083.69;5035613;28;20662;-75
2023/08/24 04:12:08;;;;;;;8.30;4.00;;;17.40;99.90;;;17.04;76.46;101094.69;5035941;28;20282;-75
2023/08/24 04:14:41;;;;;;;6.60;4.03;;;17.30;99.90;;;17.03;75.44;101088.44;5035703;28;20318;-75
2023/08/24 04:17:13;;;;;;;5.70;4.10;;;17.30;99.90;;;16.99;75.83;101097.13;5035781;28;20223;-75
2023/08/24 04:19:45;;;;;;;5.90;3.90;;;17.30;99.90;;;16.94;75.72;101110.41;5035827;28;20191;-75
2023/08/24 04:22:17;;;;;;;4.87;3.90;;;17.30;99.90;;;16.83;76.80;101110.91;5035670;28;20253;-75
2023/08/24 04:24:49;;;;;;;4.63;3.73;;;17.10;99.90;;;16.91;76.15;101116.22;5035656;28;20223;-75
2023/08/24 04:27:22;;;;;;;5.90;3.90;;;17.10;99.90;;;16.85;76.01;101112.38;5035619;28;20241;-75
2023/08/24 04:29:55;;;;;;;9.73;3.97;;;17.30;99.90;;;16.88;76.11;101119.31;5035549;28;20215;-75
2023/08/24 04:32:27;;;;;;;4.57;4.03;;;17.20;99.90;;;16.86;76.70;101113.22;5035558;28;20199;-76
2023/08/24 04:34:59;;;;;;;4.93;4.47;;;17.20;99.90;;;16.78;78.26;101110.66;5035478;28;20230;-76
2023/08/24 04:37:31;;;;;;;7.90;4.70;;;17.10;99.90;;;16.78;77.71;101103.38;5035481;28;20231;-76
2023/08/24 04:40:04;;;;;;;5.87;4.53;;;17.10;99.90;;;16.83;78.38;101097.38;5035442;28;20188;-73
2023/08/24 04:42:36;;;;;;;5.27;4.60;;;17.20;99.90;;;16.72;79.92;101099.56;5035362;28;20301;-73
2023/08/24 04:45:11;;;;;;;6.90;4.67;;;17.10;99.90;;;16.72;79.96;101123.91;5035290;28;20281;-75
2023/08/24 04:47:43;;;;;;;7.00;4.60;;;17.10;99.90;;;16.76;79.16;101124.38;5034885;28;20214;-75
2023/08/24 04:50:15;;;;;;;6.77;4.73;;;17.20;99.90;;;16.76;79.96;101118.13;5035194;28;20211;-75
2023/08/24 04:52:47;;;;;;;11.23;5.13;;;17.10;99.90;;;16.77;80.13;101109.81;5034813;28;20727;-75
2023/08/24 04:55:19;;;;;;;6.47;4.20;;;17.10;99.90;;;16.80;80.10;101119.41;5034759;28;20584;-75
2023/08/24 04:57:51;;;;;;;8.67;4.50;;;17.20;99.90;;;16.83;80.00;101119.03;5034805;28;20653;-75
2023/08/24 05:00:25;;;;;;;9.57;5.03;;;17.20;99.90;;;16.82;80.76;101118.19;5035044;28;20191;-75
2023/08/24 05:02:57;;;;;;;6.67;5.07;;;17.20;99.90;;;16.82;80.36;101129.00;5034920;28;20278;-75
2023/08/24 05:05:29;;;;;;;13.20;4.80;;;17.20;99.90;;;16.85;81.00;101134.03;5034617;28;20202;-75
2023/08/24 05:08:03;;;;;;;6.53;5.37;;;17.20;99.90;;;16.86;81.01;101134.88;5034537;28;20187;-62
2023/08/24 05:10:37;;;;;;;6.23;4.97;;;17.20;99.90;;;16.86;81.41;101134.88;5034790;28;20302;-71
2023/08/24 05:13:09;;;;;;;9.77;5.73;;;17.20;99.90;;;16.87;81.17;101134.69;5034410;28;20229;-72
2023/08/24 05:15:42;;;;;;;6.90;5.00;;;17.20;99.90;;;16.88;81.60;101122.84;5034732;28;20197;-72
2023/08/24 05:18:14;;;;;;;6.63;5.57;;;17.30;99.90;;;16.90;81.82;101122.63;5034690;28;20274;-72
2023/08/24 05:20:46;;;;;;;8.07;5.57;;;17.30;99.90;;;16.91;81.54;101121.63;5034640;28;20198;-72
2023/08/24 05:23:18;;;;;;;7.43;5.80;;;17.30;99.90;;;16.94;82.26;101123.94;5034551;28;20231;-72
2023/08/24 05:25:50;;;;;;;6.20;5.60;;;17.40;99.90;;;16.93;81.52;101124.94;5034554;28;20282;-72
2023/08/24 05:28:21;;;;;;;8.27;6.40;;;18.00;99.90;;;16.91;82.38;101127.03;5034164;28;20663;-72
2023/08/24 05:30:56;;;;;;;6.37;5.50;;;17.30;99.90;;;16.91;82.65;101113.50;5034365;28;20215;-72
2023/08/24 05:33:30;;;;;;;6.47;5.80;;;17.30;99.90;;;16.94;82.03;101097.72;5033856;28;20234;-72
2023/08/24 05:36:02;;;;;;;7.93;5.90;;;17.40;99.90;;;16.98;82.61;101098.19;5034886;28;20285;-72
2023/08/24 05:38:34;;;;;;;6.60;6.00;;;17.40;99.90;;;16.92;82.89;101099.78;5034497;28;20381;-70
2023/08/24 05:41:06;;;;;;;9.40;6.07;;;17.30;99.90;;;16.97;82.15;101101.91;5035142;28;20265;-72
2023/08/24 05:43:38;;;;;;;10.00;6.03;;;17.40;99.90;;;16.99;82.83;101105.25;5034756;28;20240;-72
2023/08/24 05:46:11;;;;;;;7.60;5.97;;;17.40;99.90;;;16.95;82.73;101120.22;5034663;28;20211;-71
2023/08/24 05:48:43;;;;;;;8.40;6.63;;;17.30;99.90;;;16.90;82.81;101118.06;5034766;28;20198;-72
2023/08/24 05:51:15;;;;;;;9.00;7.00;;;17.30;99.90;;;16.97;82.69;101127.09;5034096;28;20672;-71
2023/08/24 05:53:47;;;;;;;15.63;7.10;;;17.40;99.90;;;16.96;83.44;101124.56;5033948;28;20229;-71
2023/08/24 05:56:19;;;;;;;21.90;7.03;;;17.40;99.90;;;16.93;83.08;101131.22;5034025;28;20230;-71
2023/08/24 05:58:51;;;;;;;13.17;5.90;;;17.40;99.90;;;16.96;83.18;101130.81;5033967;28;20282;-72
2023/08/24 06:01:24;;;;;;;11.33;6.30;;;17.40;99.90;;;16.99;83.57;101127.72;5033706;28;20711;-72
2023/08/24 06:03:56;;;;;;;11.20;6.30;;;17.40;99.90;;;17.02;83.46;101129.22;5033586;28;20313;-72
2023/08/24 06:06:28;;;;;;;12.07;6.03;;;17.50;99.90;;;17.07;83.95;101121.34;5033894;28;20198;-72
2023/08/24 06:09:00;;;;;;;10.13;6.73;;;17.50;99.90;;;17.07;83.77;101118.66;5033980;28;20195;-71
2023/08/24 06:11:33;;;;;;;8.73;6.70;;;17.60;99.90;;;17.01;83.81;101108.59;5033409;28;20301;-71
2023/08/24 06:14:04;;;;;;;10.80;5.93;;;17.40;99.90;;;17.05;83.98;101099.09;5033361;28;20599;-71
2023/08/24 06:16:37;;;;;;;12.43;6.83;;;17.60;99.90;;;17.09;84.23;101081.41;5033723;28;20270;-72
2023/08/24 06:19:09;;;;;;;11.90;6.33;;;17.50;99.90;;;17.11;82.93;101068.53;5033729;28;20194;-72
2023/08/24 06:21:41;;;;;;;13.07;7.00;;;17.60;99.90;;;17.16;83.46;101074.19;5033346;28;20657;-72
2023/08/24 06:24:13;;;;;;;15.43;6.80;;;17.60;99.90;;;17.18;84.49;101077.56;5033224;28;20322;-72
2023/08/24 06:26:45;;;;;;;12.63;6.60;;;17.60;99.90;;;17.20;84.23;101072.78;5033569;28;20191;-72
2023/08/24 06:29:17;;;;;;;13.97;6.87;;;17.70;99.90;;;17.21;84.32;101079.88;5033590;28;20199;-72
2023/08/24 06:31:50;;;;;;;11.20;6.17;;;17.70;99.90;;;17.23;84.22;101085.91;5033477;28;20241;-74
2023/08/24 06:34:23;;;;;;;10.23;7.13;;;17.70;99.90;;;17.22;84.25;101087.81;5033419;28;20230;-75
2023/08/24 06:37:01;;;;;;;9.40;6.20;;;17.70;99.90;;;17.25;83.21;101089.28;5033173;28;20197;-75
2023/08/24 06:39:33;;;;;;;9.03;6.00;;;17.70;99.90;;;17.29;83.10;101079.75;5033441;28;20281;-75
2023/08/24 06:42:05;;;;;;;12.20;6.33;;;17.80;99.90;;;17.33;83.75;101072.06;5033410;28;20215;-75
2023/08/24 06:44:37;;;;;;;10.13;6.90;;;17.80;99.90;;;17.36;83.97;101063.56;5033400;28;20226;-75
2023/08/24 06:47:10;;;;;;;11.13;6.73;;;17.90;99.90;;;17.37;84.71;101057.94;5036326;28;20705;-75
2023/08/24 06:49:42;;;;;;;10.80;7.00;;;17.80;99.90;;;17.38;85.06;101065.03;5037490;28;20223;-75
2023/08/24 06:52:14;;;;;;;12.67;7.53;;;17.90;99.90;;;17.35;86.02;101065.41;5037362;28;20215;-75
2023/08/24 06:54:45;;;;;;;10.93;6.03;;;17.80;99.90;;;17.35;85.30;101054.59;5037260;28;20331;-75
2023/08/24 06:57:17;;;;;;;13.57;6.83;;;17.80;99.90;;;17.36;83.99;101056.28;5037316;28;20193;-75
2023/08/24 06:59:49;;;;;;;13.43;7.43;;;17.80;99.90;;;17.41;84.48;101061.91;5037310;28;20194;-75
2023/08/24 07:02:23;;;;;;;11.70;5.67;;;17.90;99.90;;;17.44;83.83;101064.22;5037254;28;20211;-75
2023/08/24 07:04:57;;;;;;;11.87;6.87;;;18.00;99.90;;;17.48;83.64;101061.97;5036525;28;20222;-76
2023/08/24 07:07:28;;;;;;;12.73;6.23;;;18.00;99.90;;;17.52;84.26;101050.56;5037160;28;20195;-76
2023/08/24 07:10:00;;;;;;;15.00;6.87;;;18.00;99.90;;;17.54;84.20;101053.88;5037100;28;20195;-75
2023/08/24 07:12:33;;;;;;;19.63;7.43;;;18.10;99.90;;;17.56;85.12;101059.16;5037868;28;20273;-75
2023/08/24 07:15:06;;;;;;;22.67;8.27;;;18.10;99.90;;;17.61;86.01;101062.91;5036592;28;20223;-75
2023/08/24 07:17:39;;;;;;;17.80;7.93;;;18.10;99.90;;;17.58;84.43;101067.91;5037015;28;20226;-75
2023/08/24 07:20:13;;;;;;;17.27;7.97;;;18.10;99.90;;;17.63;84.18;101068.16;5036874;28;20187;-75
2023/08/24 07:22:45;;;;;;;16.03;6.83;;;18.10;99.90;;;17.69;83.58;101068.19;5036504;28;20562;-75
2023/08/24 07:25:17;;;;;;;13.50;7.30;;;18.20;99.90;;;17.80;84.55;101074.94;5036877;28;20191;-75
2023/08/24 07:27:49;;;;;;;14.10;7.70;;;18.30;99.90;;;17.80;81.88;101065.97;5036757;28;20289;-75
2023/08/24 07:30:22;;;;;;;14.90;7.27;;;18.30;99.90;;;17.86;82.30;101068.72;5036608;28;20237;-75
2023/08/24 07:33:07;;;;;;;10.70;6.10;;;18.40;99.90;;;17.94;82.40;101059.59;5036592;28;20230;-75
2023/08/24 07:35:39;;;;;;;11.87;6.97;;;18.50;99.90;;;18.02;83.48;101059.41;5036702;28;20190;-75
2023/08/24 07:38:11;;;;;;;15.03;8.00;;;18.70;99.90;;;18.11;82.23;101061.75;5036638;28;20265;-75
2023/08/24 07:40:43;;;;;;;8.43;6.93;;;18.70;99.90;;;18.17;81.81;101052.81;5036525;28;20203;-75
2023/08/24 07:43:15;;;;;;;12.57;7.63;;;18.80;99.90;;;18.22;81.41;101050.31;5036485;28;20226;-75
2023/08/24 07:45:47;;;;;;;12.40;7.60;;;18.80;99.90;;;18.31;81.41;101051.00;5036321;28;20223;-75
2023/08/24 07:48:20;;;;;;;12.50;7.50;;;18.90;99.90;;;18.43;80.50;101038.50;5036452;28;20191;-75
2023/08/24 07:50:52;;;;;;;8.37;6.10;;;19.00;99.90;;;18.50;79.64;101033.97;5036342;28;20219;-75
2023/08/24 07:53:24;;;;;;;12.27;7.77;;;19.10;99.90;;;18.57;79.29;101023.97;5036246;28;20659;-75
2023/08/24 07:55:57;;;;;;;19.23;8.40;;;19.20;99.90;;;18.63;78.76;101033.19;5036169;28;20206;-75
2023/08/24 07:58:31;;;;;;;11.60;8.00;;;19.20;99.90;;;18.66;78.23;101025.44;5035791;28;20653;-75
2023/08/24 08:01:04;;;;;;;13.60;7.33;;;19.20;99.90;;;18.67;78.87;101010.00;5036185;28;20282;-75
2023/08/24 08:03:37;;;;;;;11.43;7.13;;;19.20;99.90;;;18.69;79.34;101006.09;5036062;28;20230;-75
2023/08/24 08:06:13;;;;;;;10.93;6.90;;;19.20;99.90;;;18.74;79.67;101003.56;5036108;28;20202;-75
2023/08/24 08:08:46;;;;;;;10.10;7.23;;;19.30;99.90;;;18.83;79.79;101012.34;5036079;28;20245;-75
2023/08/24 08:11:18;;;;;;;9.23;7.43;;;19.40;99.90;;;18.91;78.44;101014.00;5035915;28;20301;-75
2023/08/24 08:13:52;;;;;;;10.87;7.93;;;19.50;99.90;;;18.95;79.48;101015.25;5036140;28;20241;-75
2023/08/24 08:16:24;;;;;;;9.10;6.70;;;19.50;99.90;;;19.02;79.53;101010.66;5035937;28;20219;-75
2023/08/24 08:18:57;;;;;;;15.83;9.10;;;19.60;99.90;;;19.18;78.04;101010.25;5035572;28;20641;-75
2023/08/24 08:21:30;;;;;;;9.03;7.50;;;19.80;99.90;;;19.24;78.88;101010.28;5035798;28;20200;-75
2023/08/24 08:24:01;;;;;;;13.33;7.73;;;19.90;99.90;;;19.37;77.98;101003.97;5035706;28;20269;-75
2023/08/24 08:26:33;;;;;;;11.27;7.20;;;20.00;99.90;;;19.45;78.49;101003.75;5035718;28;20230;-75
2023/08/24 08:29:06;;;;;;;14.47;8.27;;;20.10;99.90;;;19.55;78.58;100996.03;5035665;28;20227;-75
2023/08/24 08:31:38;;;;;;;12.10;8.33;;;20.20;99.90;;;19.60;79.40;100998.94;5035544;28;20294;-75
2023/08/24 08:34:11;;;;;;;8.13;6.93;;;20.20;99.90;;;19.79;77.17;101007.25;5035237;28;20223;-75
2023/08/24 08:36:43;;;;;;;9.23;7.60;;;20.40;99.90;;;19.87;77.09;101004.28;5035206;28;20187;-75
2023/08/24 08:39:17;;;;;;;9.73;7.53;;;20.50;99.90;;;19.98;76.19;101007.19;5035479;28;20281;-75
2023/08/24 08:41:51;;;;;;;7.77;6.70;;;20.60;99.90;;;20.03;76.45;100999.22;5035464;28;20191;-75
2023/08/24 08:44:25;;;;;;;9.97;6.90;;;20.70;99.90;;;20.11;76.94;101003.56;5035047;28;20790;-75
2023/08/24 08:46:58;;;;;;;8.60;6.53;;;20.80;99.90;;;20.27;75.39;101010.41;5035044;28;20218;-75
2023/08/24 08:49:35;;;;;;;7.63;6.47;;;20.90;99.90;;;20.29;74.58;101008.31;5035007;28;20660;-75
2023/08/24 08:52:07;;;;;;;8.00;6.07;;;21.00;99.90;;;20.38;74.09;101024.16;5035565;28;20214;-76
2023/08/24 08:54:40;;;;;;;9.90;7.43;;;21.00;99.90;;;20.57;73.01;101015.06;5034882;28;20238;-67
2023/08/24 08:57:13;;;;;;;7.97;6.47;;;21.20;99.90;;;20.61;73.11;101019.03;5034739;28;20266;-73
2023/08/24 08:59:46;;;;;;;7.73;5.97;;;21.30;99.90;;;20.65;74.37;101012.06;5035099;28;20281;-73
2023/08/24 09:02:22;;;;;;;10.27;5.57;;;21.40;99.90;;;20.83;71.82;101005.03;5034700;28;20559;-73
2023/08/24 09:04:56;;;;;;;7.87;5.83;;;21.50;99.90;;;20.90;72.79;101014.00;5034934;28;20285;-73
2023/08/24 09:07:28;;;;;;;6.63;5.70;;;21.50;99.90;;;20.95;73.72;101008.72;5034913;28;20199;-73
2023/08/24 09:10:00;;;;;;;7.43;5.43;;;21.60;99.90;;;21.13;70.70;101009.63;5034142;28;20207;-73
2023/08/24 09:12:37;;;;;;;9.07;5.20;;;21.80;99.90;;;21.22;71.21;101010.19;5034455;28;20676;-73
2023/08/24 09:15:11;;;;;;;7.73;4.70;;;21.90;99.90;;;21.32;69.08;101010.53;5034738;28;20324;-73
2023/08/24 09:17:49;;;;;;;5.17;4.67;;;22.00;99.90;;;21.46;69.36;101013.97;5034776;28;20244;-73
2023/08/24 09:20:23;;;;;;;6.30;4.53;;;22.10;99.90;;;21.58;68.73;101003.97;5034460;28;20603;-73
2023/08/24 09:22:57;;;;;;;7.00;5.10;;;22.30;99.90;;;21.74;66.38;101001.50;5034384;28;20719;-73
2023/08/24 09:25:29;;;;;;;6.60;5.60;;;22.30;99.90;;;21.88;65.77;101004.06;5034374;28;20191;-73
2023/08/24 09:28:04;;;;;;;6.70;6.00;;;22.50;99.90;;;22.02;65.33;101000.16;5034286;28;20629;-73
2023/08/24 09:30:41;;;;;;;6.30;4.90;;;22.60;99.90;;;22.08;66.46;100991.06;5034190;28;20660;-73
2023/08/24 09:33:16;;;;;;;6.37;4.63;;;22.70;99.90;;;22.17;68.57;100989.66;5034293;28;20230;-73
2023/08/24 09:35:53;;;;;;;6.70;5.67;;;22.80;99.90;;;22.23;64.94;100981.38;5034408;28;20187;-73
2023/08/24 09:38:26;;;;;;;7.63;4.77;;;22.80;99.90;;;22.35;65.33;100972.44;5034394;28;20187;-73
2023/08/24 09:40:59;;;;;;;6.10;4.83;;;22.90;99.90;;;22.51;64.69;100964.41;5034025;28;20736;-73
2023/08/24 09:43:33;;;;;;;7.23;5.97;;;23.10;99.90;;;22.57;64.84;100966.19;5033903;28;20708;-73
2023/08/24 09:46:06;;;;;;;8.87;5.93;;;23.20;99.90;;;22.61;63.83;100972.03;5034031;28;20261;-73
2023/08/24 09:48:38;;;;;;;6.90;5.57;;;23.20;99.90;;;22.84;62.67;100968.56;5034154;28;20215;-73
2023/08/24 09:51:13;;;;;;;7.37;4.53;;;23.30;99.90;;;22.81;63.67;100969.03;5033827;28;20529;-73
2023/08/24 09:53:48;;;;;;;6.30;4.50;;;23.40;99.90;;;23.01;62.78;100953.16;5033975;28;20234;-73
2023/08/24 09:56:22;;;;;;;6.13;4.70;;;23.60;99.90;;;23.14;63.96;100961.09;5034057;28;20381;-73
2023/08/24 09:59:01;;;;;;;6.60;5.13;;;23.70;99.90;;;23.30;63.55;100945.88;5034059;28;20285;-73
2023/08/24 10:01:34;;;;;;;6.03;5.07;;;23.90;99.90;;;23.35;64.03;100933.19;5034003;28;20205;-73
2023/08/24 10:04:13;;;;;;;5.90;4.80;;;23.90;99.90;;;23.50;62.15;100927.22;5033867;28;20318;-73
2023/08/24 10:06:52;;;;;;;8.27;5.57;;;24.10;99.90;;;23.72;60.73;100926.38;5033579;28;20565;-73
2023/08/24 10:09:32;;;;;;;5.10;4.60;;;24.30;99.10;;;23.74;63.98;100916.00;5033879;28;20226;-73
2023/08/24 10:12:08;;;;;;;7.47;4.70;;;24.30;99.90;;;23.90;60.97;100910.84;5033736;28;20301;-73
2023/08/24 10:14:50;;;;;;;8.63;5.10;;;24.50;99.40;;;24.01;61.02;100907.22;5033378;28;20724;-73
2023/08/24 10:17:22;;;;;;;8.60;4.67;;;24.60;99.20;;;24.13;58.64;100910.78;5033728;28;20277;-73
2023/08/24 10:19:56;;;;;;;9.03;4.50;;;24.70;98.20;;;24.20;58.09;100906.00;5033525;28;20245;-73
2023/08/24 10:22:29;;;;;;;6.40;4.60;;;24.70;97.80;;;24.40;57.26;100911.81;5033775;28;20289;-73
2023/08/24 10:25:03;;;;;;;8.60;4.25;;;24.90;97.20;;;24.55;56.81;100903.91;5033576;28;20226;-73
2023/08/24 10:27:35;;;;;;;5.20;3.85;;;25.10;97.00;;;24.55;59.23;100898.41;5033318;28;20680;-73
2023/08/24 10:30:10;;;;;;;7.07;3.65;;;25.10;98.00;;;24.58;58.74;100897.91;5033587;28;20202;-73
2023/08/24 10:32:45;;;;;;;4.10;3.70;;;25.10;98.00;;;24.65;58.06;100887.63;5033210;28;20226;-73
2023/08/24 10:35:17;;;;;;;5.00;3.63;;;25.20;98.10;;;24.81;57.34;100890.59;5033530;28;20199;-73